Time;durP1;ratioP1;P1;durP2;ratioP2;P2;SDS_P1;SDS_P2;PMS_P1;PMS_P2;Temp;Humidity;BMP_temperature;BMP_pressure;BME280_temperature;BME280_humidity;BME280_pressure;Samples;Min_cycle;Max_cycle;Signal;HPM_P1;HPM_P2
2022/12/28 00:04:08;;;;;;;0.30;0.30;;;;;;;5.34;100.00;101586.69;10375430;28;20054;-71
2022/12/28 00:09:11;;;;;;;0.10;0.10;;;;;;;5.34;100.00;101565.06;10392139;28;20054;-71
2022/12/28 00:14:14;;;;;;;0.68;0.32;;;;;;;5.24;100.00;101554.03;10390895;28;20496;-71
2022/12/28 00:19:17;;;;;;;0.10;0.10;;;;;;;5.35;100.00;101504.44;10391143;28;20092;-71
2022/12/28 00:24:21;;;;;;;0.10;0.10;;;;;;;5.40;100.00;101516.41;10389518;28;20141;-71
2022/12/28 00:29:23;;;;;;;0.10;0.10;;;;;;;5.39;100.00;101509.50;10389818;28;20060;-71
2022/12/28 00:34:26;;;;;;;0.10;0.10;;;;;;;5.46;100.00;101512.81;10375100;28;20050;-71
2022/12/28 00:39:28;;;;;;;0.10;0.10;;;;;;;5.42;100.00;101498.22;10390081;28;20056;-71
2022/12/28 00:44:30;;;;;;;0.10;0.10;;;;;;;5.40;100.00;101481.81;10372382;28;20054;-71
2022/12/28 00:49:33;;;;;;;0.10;0.10;;;;;;;5.38;100.00;101468.88;10388961;28;20060;-72
2022/12/28 00:54:35;;;;;;;0.10;0.10;;;;;;;5.39;100.00;101448.94;10397838;28;20440;-72
2022/12/28 00:59:37;;;;;;;0.10;0.10;;;;;;;5.39;100.00;101454.13;10398479;28;20045;-72
2022/12/28 01:04:40;;;;;;;0.68;0.55;;;;;;;5.60;100.00;101437.16;10392884;28;20054;-71
2022/12/28 01:09:42;;;;;;;0.10;0.10;;;;;;;5.63;100.00;101444.00;10375607;28;20050;-71
2022/12/28 01:14:44;;;;;;;0.22;0.22;;;;;;;5.58;100.00;101432.00;10374682;28;20046;-72
2022/12/28 01:19:47;;;;;;;0.10;0.10;;;;;;;5.69;100.00;101420.47;10373699;28;20057;-72
2022/12/28 01:24:55;;;;;;;0.20;0.20;;;;;;;5.91;100.00;101410.31;10373136;28;20457;-72
2022/12/28 01:29:57;;;;;;;0.30;0.30;;;;;;;5.87;100.00;101414.75;10388255;28;20046;-72
2022/12/28 01:34:59;;;;;;;0.40;0.40;;;;;;;5.78;100.00;101386.41;10356930;28;20038;-72
2022/12/28 01:40:02;;;;;;;0.10;0.10;;;;;;;6.01;100.00;101391.00;10374322;28;20105;-72
2022/12/28 01:45:19;;;;;;;0.10;0.10;;;;;;;5.88;100.00;101361.88;10356972;28;20101;-72
2022/12/28 01:50:24;;;;;;;0.38;0.38;;;;;;;5.94;100.00;101355.66;10378991;28;20137;-72
2022/12/28 01:55:35;;;;;;;1.27;1.23;;;;;;;5.90;100.00;101351.44;10364255;28;20116;-72
2022/12/28 02:00:39;;;;;;;1.33;1.13;;;;;;;5.88;100.00;101335.03;10396904;28;20058;-72
2022/12/28 02:05:45;;;;;;;0.98;0.82;;;;;;;5.96;100.00;101317.50;10396019;28;20046;-72
2022/12/28 02:10:48;;;;;;;0.65;0.63;;;;;;;6.06;100.00;101329.31;10395725;28;20050;-72
2022/12/28 02:15:50;;;;;;;0.40;0.40;;;;;;;6.09;100.00;101295.44;10380317;28;20481;-72
2022/12/28 02:21:21;;;;;;;0.10;0.10;;;;;;;6.32;100.00;101294.75;10380320;28;20061;-72
2022/12/28 02:26:42;;;;;;;0.10;0.10;;;;;;;6.27;100.00;101274.97;10339890;28;20485;-72
2022/12/28 02:32:03;;;;;;;0.30;0.30;;;;;;;6.22;100.00;101266.44;10402613;28;20465;-72
2022/12/28 02:37:32;;;;;;;0.40;0.40;;;;;;;6.35;100.00;101257.38;10386844;28;20056;-72
2022/12/28 02:42:35;;;;;;;0.85;0.65;;;;;;;6.44;100.00;101249.28;10394388;28;20417;-72
2022/12/28 02:53:16;;;;;;;0.10;0.10;;;;;;;6.31;100.00;101251.41;10338072;28;20050;-72
2022/12/28 02:58:57;;;;;;;0.65;0.65;;;;;;;6.30;100.00;101233.25;10339122;28;20061;-72
2022/12/28 03:04:20;;;;;;;0.10;0.10;;;;;;;6.19;100.00;101219.78;10277048;28;20589;-72
2022/12/28 03:09:25;;;;;;;0.10;0.10;;;;;;;6.23;100.00;101235.19;10365003;28;20050;-71
2022/12/28 03:14:58;;;;;;;0.10;0.10;;;;;;;6.19;100.00;101225.81;10378681;28;20130;-71
2022/12/28 03:31:08;;;;;;;0.10;0.10;;;;;;;6.28;100.00;101220.31;10389568;28;20058;-71
2022/12/28 03:36:25;;;;;;;0.32;0.32;;;;;;;6.27;100.00;101215.16;10391802;28;20133;-71
2022/12/28 03:41:46;;;;;;;0.80;0.80;;;;;;;6.25;100.00;101217.78;10392915;28;20054;-70
2022/12/28 03:47:07;;;;;;;0.20;0.20;;;;;;;6.33;100.00;101209.75;10375631;28;20485;-70
2022/12/28 03:52:09;;;;;;;0.10;0.10;;;;;;;6.49;100.00;101226.56;10390517;28;20535;-71
2022/12/28 03:57:12;;;;;;;0.10;0.10;;;;;;;6.35;100.00;101210.53;10358771;28;20046;-71
2022/12/28 04:02:14;;;;;;;0.20;0.20;;;;;;;6.47;100.00;101215.38;10376973;28;20057;-71
2022/12/28 04:07:16;;;;;;;1.55;1.55;;;;;;;6.47;100.00;101193.69;10376189;28;20049;-71
2022/12/28 04:12:19;;;;;;;0.10;0.10;;;;;;;6.45;100.00;101198.09;10376485;28;20042;-71
2022/12/28 04:17:21;;;;;;;2.63;2.45;;;;;;;6.62;100.00;101201.00;10391503;28;20056;-71
2022/12/28 04:22:23;;;;;;;0.10;0.10;;;;;;;6.61;100.00;101182.81;10375577;28;20058;-71
2022/12/28 04:27:26;;;;;;;0.10;0.10;;;;;;;6.68;100.00;101182.53;10365263;28;20054;-71
2022/12/28 04:32:28;;;;;;;0.40;0.40;;;;;;;6.55;100.00;101172.63;10389421;28;20053;-71
2022/12/28 04:37:30;;;;;;;0.10;0.10;;;;;;;6.75;100.00;101171.94;10375667;28;20057;-71
2022/12/28 04:42:33;;;;;;;0.52;0.52;;;;;;;6.67;100.00;101174.78;10357456;28;20046;-72
2022/12/28 04:47:35;;;;;;;0.38;0.38;;;;;;;6.64;100.00;101172.28;10388574;28;20448;-72
2022/12/28 04:52:40;;;;;;;0.20;0.20;;;;;;;6.74;100.00;101159.81;10375963;28;20077;-72
2022/12/28 04:57:46;;;;;;;0.55;0.40;;;;;;;6.83;100.00;101172.50;10374315;28;20455;-71
2022/12/28 05:02:48;;;;;;;1.20;1.17;;;;;;;6.79;100.00;101156.16;10390131;28;20046;-71
2022/12/28 05:07:50;;;;;;;1.05;1.02;;;;;;;6.77;100.00;101144.94;10388375;28;20532;-71
2022/12/28 05:12:54;;;;;;;17.52;1.10;;;;;;;6.79;100.00;101147.47;10373742;28;20049;-71
2022/12/28 05:17:56;;;;;;;0.63;0.52;;;;;;;6.87;100.00;101143.69;10389937;28;20056;-71
2022/12/28 05:22:58;;;;;;;0.13;0.13;;;;;;;6.79;100.00;101142.28;10374005;28;20046;-71
2022/12/28 05:28:01;;;;;;;0.13;0.13;;;;;;;6.91;100.00;101141.84;10381546;28;20054;-70
2022/12/28 05:33:03;;;;;;;0.55;0.55;;;;;;;6.93;100.00;101129.63;10395919;28;20371;-71
2022/12/28 05:38:06;;;;;;;0.85;0.82;;;;;;;7.01;100.00;101137.13;10382447;28;20053;-71
2022/12/28 05:43:09;;;;;;;0.10;0.10;;;;;;;7.13;100.00;101148.84;10382315;28;20096;-71
2022/12/28 05:48:11;;;;;;;0.43;0.43;;;;;;;7.19;100.00;101146.84;10382204;28;20057;-71
2022/12/28 05:53:13;;;;;;;0.82;0.82;;;;;;;7.10;100.00;101135.97;10381855;28;20050;-71
2022/12/28 05:58:16;;;;;;;0.10;0.10;;;;;;;7.23;100.00;101142.41;10381706;28;20049;-71
2022/12/28 06:03:18;;;;;;;0.15;0.15;;;;;;;7.19;100.00;101127.78;10380823;28;20057;-71
2022/12/28 06:08:20;;;;;;;0.52;0.52;;;;;;;7.15;100.00;101128.81;10380645;28;20493;-71
2022/12/28 06:13:24;;;;;;;0.10;0.10;;;;;;;7.16;100.00;101126.16;10363674;28;20054;-72
2022/12/28 06:18:28;;;;;;;0.10;0.10;;;;;;;7.32;100.00;101120.38;10380851;28;20112;-72
2022/12/28 06:23:30;;;;;;;0.40;0.40;;;;;;;7.27;100.00;101111.88;10379856;28;20046;-72
2022/12/28 06:28:35;;;;;;;0.52;0.52;;;;;;;7.27;100.00;101115.31;10395673;28;20096;-70
2022/12/28 06:33:38;;;;;;;0.30;0.30;;;;;;;7.33;100.00;101107.28;10378318;28;20049;-70
2022/12/28 06:38:40;;;;;;;0.20;0.20;;;;;;;7.32;100.00;101102.13;10378906;28;20046;-71
2022/12/28 06:43:44;;;;;;;2.25;2.08;;;;;;;7.44;100.00;101125.94;10395114;28;20042;-70
2022/12/28 06:48:46;;;;;;;0.10;0.10;;;;;;;7.49;100.00;101101.47;10394533;28;20499;-72
2022/12/28 06:53:50;;;;;;;0.17;0.17;;;;;;;7.61;100.00;101109.63;10394637;28;20061;-72
2022/12/28 06:58:53;;;;;;;0.30;0.30;;;;;;;7.47;100.00;101111.09;10394546;28;20104;-72
2022/12/28 07:04:05;;;;;;;0.08;0.08;;;;;;;7.47;100.00;101103.28;10379102;28;20050;-72
2022/12/28 07:09:13;;;;;;;0.10;0.10;;;;;;;7.72;100.00;101108.38;10393465;28;20058;-72
2022/12/28 07:14:15;;;;;;;0.30;0.30;;;;;;;7.60;100.00;101096.69;10378574;28;20078;-72
2022/12/28 07:19:17;;;;;;;0.68;0.68;;;;;;;7.70;100.00;101095.41;10393450;28;20054;-72
2022/12/28 07:24:20;;;;;;;0.20;0.20;;;;;;;7.63;100.00;101093.94;10392779;28;20449;-72
2022/12/28 07:29:22;;;;;;;242.07;63.13;;;;;;;7.73;100.00;101097.00;10360854;28;20053;-72
2022/12/28 07:34:24;;;;;;;61.60;54.67;;;;;;;7.84;100.00;101094.00;10377862;28;20049;-71
2022/12/28 07:39:27;;;;;;;1999.90;999.90;;;;;;;7.88;100.00;101099.00;10377789;28;20049;-72
2022/12/28 07:44:29;;;;;;;1999.90;999.90;;;;;;;7.78;100.00;101087.25;10376747;28;20560;-72
2022/12/28 07:49:39;;;;;;;1999.90;999.90;;;;;;;7.80;100.00;101085.41;10375121;28;20060;-72
2022/12/28 07:54:41;;;;;;;54.25;44.15;;;;;;;7.89;100.00;101082.44;10392248;28;20046;-72
2022/12/28 07:59:44;;;;;;;0.10;0.10;;;;;;;7.81;100.00;101108.81;10359056;28;20057;-72
2022/12/28 08:04:46;;;;;;;1999.90;999.90;;;;;;;7.78;100.00;101102.88;10376878;28;20049;-72
2022/12/28 08:09:53;;;;;;;1999.90;999.90;;;;;;;7.74;100.00;101096.13;10376644;28;20053;-72
2022/12/28 08:14:59;;;;;;;557.40;271.05;;;;;;;7.87;100.00;101091.22;10375744;28;20449;-72
2022/12/28 08:20:02;;;;;;;0.32;0.30;;;;;;;8.00;100.00;101093.28;10376056;28;20142;-72
2022/12/28 08:25:05;;;;;;;0.17;0.17;;;;;;;7.97;100.00;101075.16;10391178;28;20058;-72
2022/12/28 08:30:08;;;;;;;1.65;1.55;;;;;;;7.91;100.00;101085.00;10373895;28;20536;-72
2022/12/28 08:35:10;;;;;;;1.05;1.05;;;;;;;8.00;100.00;101082.00;10382076;22;20466;-72
2022/12/28 08:40:13;;;;;;;1.40;1.30;;;;;;;8.06;100.00;101083.50;10390202;28;20108;-73
2022/12/28 08:45:15;;;;;;;0.85;0.85;;;;;;;8.16;100.00;101095.25;10374967;28;20408;-72
2022/12/28 08:50:17;;;;;;;12.43;10.82;;;;;;;8.07;100.00;101091.28;10374279;28;20050;-72
2022/12/28 08:55:22;;;;;;;1999.90;999.90;;;;;;;7.96;100.00;101088.25;10374525;28;20548;-72
2022/12/28 09:00:24;;;;;;;1999.90;999.90;;;;;;;7.98;100.00;101092.50;10375069;28;20081;-72
2022/12/28 09:05:27;;;;;;;1999.90;999.90;;;;;;;8.05;100.00;101092.22;10357861;28;20049;-72
2022/12/28 09:10:29;;;;;;;1999.90;999.90;;;;;;;7.99;100.00;101094.19;10374196;28;20046;-71
2022/12/28 09:15:31;;;;;;;1999.90;999.90;;;;;;;7.89;100.00;101087.66;10389881;28;20050;-71
2022/12/28 09:20:34;;;;;;;1999.90;999.90;;;;;;;7.94;100.00;101096.13;10374130;28;20485;-71
2022/12/28 09:25:36;;;;;;;1999.90;999.90;;;;;;;7.96;100.00;101096.06;10374608;28;20096;-71
2022/12/28 09:30:39;;;;;;;1999.90;999.90;;;;;;;8.06;100.00;101093.94;10374589;28;20052;-71
2022/12/28 09:35:42;;;;;;;1999.90;999.90;;;;;;;8.07;100.00;101106.91;10388875;28;20058;-71
2022/12/28 09:40:44;;;;;;;1999.90;999.90;;;;;;;8.03;100.00;101104.50;10389535;28;20050;-71
2022/12/28 09:45:47;;;;;;;1999.90;999.90;;;;;;;8.00;100.00;101082.00;10389328;28;20100;-71
2022/12/28 09:50:50;;;;;;;1999.90;999.90;;;;;;;8.01;100.00;101091.50;10388928;28;20452;-71
2022/12/28 09:56:17;;;;;;;1999.90;999.90;;;;;;;8.26;100.00;101093.94;10372299;28;20050;-71
2022/12/28 10:01:21;;;;;;;1999.90;999.90;;;;;;;8.24;100.00;101087.06;10373657;28;20046;-71
2022/12/28 10:06:28;;;;;;;1999.90;999.90;;;;;;;8.13;100.00;101085.78;10386837;28;20485;-71
2022/12/28 10:11:34;;;;;;;1999.90;999.90;;;;;;;8.16;100.00;101082.19;10391765;28;20512;-72
2022/12/28 10:16:38;;;;;;;1999.90;999.90;;;;;;;8.22;100.00;101086.28;10395951;28;20042;-72
2022/12/28 10:22:03;;;;;;;1999.90;999.90;;;;;;;8.25;100.00;101073.97;10395232;28;20068;-72
2022/12/28 10:27:19;;;;;;;1999.90;999.90;;;;;;;8.29;100.00;101078.16;10395163;28;20104;-72
2022/12/28 10:32:21;;;;;;;1999.90;999.90;;;;;;;8.40;100.00;101055.97;10395811;28;20096;-72
2022/12/28 10:37:26;;;;;;;1999.90;999.90;;;;;;;8.34;100.00;101044.03;10394780;28;20058;-72
2022/12/28 10:42:39;;;;;;;1999.90;999.90;;;;;;;8.36;100.00;101039.59;10395124;28;20061;-72
2022/12/28 10:47:47;;;;;;;1999.90;999.90;;;;;;;8.32;100.00;101038.91;10395148;28;20050;-72
2022/12/28 10:52:57;;;;;;;1999.90;999.90;;;;;;;8.33;100.00;101043.19;10395128;28;20046;-72
2022/12/28 10:58:35;;;;;;;1999.90;999.90;;;;;;;8.34;100.00;101050.09;10394459;28;20061;-72
2022/12/28 11:03:56;;;;;;;1999.90;999.90;;;;;;;8.54;100.00;101032.75;10306537;28;20061;-72
2022/12/28 11:09:15;;;;;;;1999.90;999.90;;;;;;;8.55;100.00;101030.03;10394317;28;20132;-72
2022/12/28 11:14:31;;;;;;;1999.90;999.90;;;;;;;8.35;100.00;101024.84;10394097;28;20057;-72
2022/12/28 11:19:33;;;;;;;1999.90;999.90;;;;;;;8.55;100.00;101016.16;10392682;28;20443;-72
2022/12/28 11:24:35;;;;;;;73.15;68.80;;;;;;;8.28;100.00;101010.38;10392944;28;20053;-72
2022/12/28 11:29:45;;;;;;;1999.90;999.90;;;;;;;8.38;100.00;100996.84;10392460;28;20053;-72
2022/12/28 11:34:49;;;;;;;1999.90;999.90;;;;;;;8.44;100.00;100994.91;10392559;28;20061;-72
2022/12/28 11:39:52;;;;;;;1999.90;999.90;;;;;;;8.48;100.00;100996.50;10393094;28;20049;-72
2022/12/28 11:44:55;;;;;;;1999.90;999.90;;;;;;;8.52;100.00;100983.25;10377060;28;20046;-72
2022/12/28 11:50:33;;;;;;;1999.90;999.90;;;;;;;8.37;100.00;100971.69;10377283;28;20046;-71
2022/12/28 11:55:57;;;;;;;1999.90;999.90;;;;;;;8.48;100.00;100978.22;10376330;28;20456;-71
2022/12/28 12:01:01;;;;;;;1999.90;999.90;;;;;;;8.44;100.00;100966.22;10392242;28;20057;-71
2022/12/28 12:06:03;;;;;;;1999.90;999.90;;;;;;;8.44;100.00;100958.38;10391836;28;20048;-71
2022/12/28 12:11:17;;;;;;;1999.90;999.90;;;;;;;8.62;100.00;100954.09;10376039;28;20408;-71
2022/12/28 12:16:27;;;;;;;1999.90;999.90;;;;;;;8.61;100.00;100955.84;10374672;28;20108;-71
2022/12/28 12:21:34;;;;;;;1999.90;999.90;;;;;;;8.50;100.00;100939.84;10375518;28;20128;-71
2022/12/28 12:26:45;;;;;;;1999.90;999.90;;;;;;;8.51;100.00;100931.13;10373563;28;20060;-71
2022/12/28 12:31:56;;;;;;;1999.90;999.90;;;;;;;8.47;100.00;100924.31;10372806;28;20056;-71
2022/12/28 12:37:05;;;;;;;1999.90;999.90;;;;;;;8.43;100.00;100923.63;10374202;28;20058;-70
2022/12/28 12:42:26;;;;;;;1999.90;999.90;;;;;;;8.63;100.00;100916.63;10372866;28;20054;-71
2022/12/28 12:47:50;;;;;;;1999.90;999.90;;;;;;;8.67;100.00;100892.06;10373433;28;20050;-71
2022/12/28 12:53:13;;;;;;;1999.90;999.90;;;;;;;8.55;100.00;100888.28;10373831;28;20085;-71
2022/12/28 12:58:28;;;;;;;1999.90;999.90;;;;;;;8.38;100.00;100887.28;10373258;28;20507;-70
2022/12/28 13:03:37;;;;;;;1999.90;999.90;;;;;;;8.47;100.00;100870.41;10356243;28;20053;-71
2022/12/28 13:08:41;;;;;;;1999.90;999.90;;;;;;;8.49;100.00;100852.03;10357658;28;20128;-71
2022/12/28 13:13:46;;;;;;;1999.90;999.90;;;;;;;8.57;100.00;100852.50;10373438;28;20092;-72
2022/12/28 13:19:00;;;;;;;1999.90;999.90;;;;;;;8.71;100.00;100831.81;10373015;28;20455;-72
2022/12/28 13:24:02;;;;;;;1999.90;999.90;;;;;;;8.75;100.00;100814.25;10372905;28;20404;-72
2022/12/28 13:29:09;;;;;;;1999.90;999.90;;;;;;;8.68;100.00;100805.88;10372809;28;20404;-72
2022/12/28 13:34:34;;;;;;;1999.90;999.90;;;;;;;8.72;100.00;100796.97;10374031;28;20054;-72
2022/12/28 13:39:36;;;;;;;1999.90;999.90;;;;;;;8.64;100.00;100787.81;10372632;28;20485;-72
2022/12/28 13:44:48;;;;;;;1999.90;999.90;;;;;;;8.69;100.00;100778.00;10377026;28;20050;-72
2022/12/28 13:49:58;;;;;;;1999.90;999.90;;;;;;;8.56;100.00;100775.16;10380337;28;20053;-73
2022/12/28 13:55:08;;;;;;;1999.90;999.90;;;;;;;8.65;100.00;100752.97;10380480;28;20049;-73
2022/12/28 14:00:11;;;;;;;10.88;10.07;;;;;;;8.61;100.00;100746.22;10380347;28;20101;-73
2022/12/28 14:05:25;;;;;;;1.85;1.85;;;;;;;8.63;100.00;100734.78;10381279;28;20050;-73
2022/12/28 14:10:28;;;;;;;2.58;2.58;;;;;;;8.66;100.00;100728.56;10379363;28;20054;-73
2022/12/28 14:15:30;;;;;;;6.03;4.53;;;;;;;8.71;100.00;100713.53;10379752;28;20046;-72
2022/12/28 14:20:50;;;;;;;1.80;1.80;;;;;;;8.63;100.00;100705.25;10379792;28;20045;-73
2022/12/28 14:25:54;;;;;;;12.03;11.27;;;;;;;8.62;100.00;100687.88;10379597;28;20121;-73
2022/12/28 14:30:57;;;;;;;2.83;2.75;;;;;;;8.76;100.00;100668.91;10379754;28;20115;-73
2022/12/28 14:36:02;;;;;;;2.67;2.67;;;;;;;8.76;100.00;100671.50;10379306;28;20078;-73
2022/12/28 14:41:05;;;;;;;2.58;2.58;;;;;;;8.74;100.00;100648.94;10379091;28;20056;-73
2022/12/28 14:46:27;;;;;;;13.30;4.45;;;;;;;8.72;100.00;100642.09;10378923;28;20049;-73
2022/12/28 14:51:30;;;;;;;;;;;;;;;8.74;100.00;100637.66;10380117;28;20057;-73
2022/12/28 14:56:33;;;;;;;3.28;3.17;;;;;;;8.89;100.00;100612.50;10379010;28;19921;-73
2022/12/28 15:01:42;;;;;;;2.88;2.88;;;;;;;8.79;100.00;100625.19;10378818;28;20081;-73
2022/12/28 15:06:45;;;;;;;4.00;3.90;;;;;;;8.91;100.00;100618.50;10377827;28;20050;-73
2022/12/28 15:11:48;;;;;;;16.30;8.48;;;;;;;8.78;100.00;100604.41;10378736;28;20054;-73
2022/12/28 15:16:50;;;;;;;2.90;2.90;;;;;;;8.74;100.00;100607.19;10377867;28;20049;-73
2022/12/28 15:21:52;;;;;;;3.55;3.45;;;;;;;8.64;100.00;100581.63;10378409;28;20060;-73
2022/12/28 15:26:55;;;;;;;3.88;3.78;;;;;;;8.74;100.00;100573.25;10377579;28;20050;-73
2022/12/28 15:31:57;;;;;;;0.50;0.50;;;;;;;8.89;100.00;100555.94;10377888;28;20061;-73
2022/12/28 15:36:59;;;;;;;0.50;0.50;;;;;;;8.68;100.00;100552.69;10376918;28;20054;-73
2022/12/28 15:42:02;;;;;;;0.63;0.63;;;;;;;8.72;100.00;100553.38;10377652;28;20050;-73
2022/12/28 15:47:04;;;;;;;8.10;4.85;;;;;;;8.72;100.00;100543.78;10377341;28;20080;-73
2022/12/28 15:52:07;;;;;;;1999.90;999.90;;;;;;;8.74;100.00;100528.88;10377140;28;20053;-73
2022/12/28 15:57:11;;;;;;;0.80;0.80;;;;;;;8.89;100.00;100516.75;10376943;28;20046;-73
2022/12/28 16:02:14;;;;;;;0.10;0.10;;;;;;;8.83;100.00;100503.19;10375077;28;20077;-73
2022/12/28 16:07:18;;;;;;;0.20;0.20;;;;;;;8.70;100.00;100498.63;10374208;28;20381;-73
2022/12/28 16:12:21;;;;;;;0.10;0.10;;;;;;;8.70;100.00;100495.19;10377028;28;20049;-74
2022/12/28 16:17:24;;;;;;;0.20;0.20;;;;;;;8.65;100.00;100482.38;10375628;28;20483;-74
2022/12/28 16:22:26;;;;;;;0.40;0.40;;;;;;;8.69;100.00;100475.22;10376126;28;20058;-73
2022/12/28 16:27:29;;;;;;;0.68;0.47;;;;;;;8.61;100.00;100475.66;10376193;28;20077;-73
2022/12/28 16:32:31;;;;;;;0.20;0.20;;;;;;;8.57;100.00;100470.69;10375201;28;20052;-73
2022/12/28 16:37:34;;;;;;;0.20;0.20;;;;;;;8.51;100.00;100464.03;10374746;28;20058;-73
2022/12/28 16:42:36;;;;;;;0.22;0.22;;;;;;;8.47;100.00;100470.31;10375572;28;20058;-72
2022/12/28 16:47:39;;;;;;;0.80;0.55;;;;;;;8.46;100.00;100460.84;10374869;28;20475;-72
2022/12/28 16:52:46;;;;;;;0.10;0.10;;;;;;;8.44;100.00;100452.22;10374675;28;20061;-72
2022/12/28 16:57:48;;;;;;;0.10;0.10;;;;;;;8.37;100.00;100442.09;10374483;28;20049;-72
2022/12/28 17:02:50;;;;;;;0.10;0.10;;;;;;;8.15;100.00;100446.78;10374998;28;20054;-72
2022/12/28 17:07:53;;;;;;;0.10;0.10;;;;;;;8.16;100.00;100428.44;10374945;28;20069;-71
2022/12/28 17:12:56;;;;;;;0.20;0.20;;;;;;;8.22;100.00;100424.69;10374735;28;20045;-71
2022/12/28 17:17:58;;;;;;;1.08;0.65;;;;;;;8.08;100.00;100407.13;10375340;28;20072;-71
2022/12/28 17:23:00;;;;;;;0.20;0.20;;;;;;;8.12;100.00;100405.19;10365056;28;20054;-71
2022/12/28 17:28:03;;;;;;;0.28;0.28;;;;;;;8.10;100.00;100391.41;10382095;28;20072;-71
2022/12/28 17:33:05;;;;;;;0.15;0.15;;;;;;;8.12;100.00;100387.81;10382525;28;20080;-71
2022/12/28 17:38:08;;;;;;;1.23;0.85;;;;;;;8.12;100.00;100387.81;10381498;28;20459;-71
2022/12/28 17:43:10;;;;;;;0.10;0.10;;;;;;;8.17;100.00;100384.97;10381594;28;20377;-71
2022/12/28 17:48:13;;;;;;;12.50;1.42;;;;;;;8.17;100.00;100377.16;10381930;28;20054;-71
2022/12/28 17:53:16;;;;;;;0.20;0.20;;;;;;;8.14;100.00;100365.09;10381757;28;20057;-71
2022/12/28 17:58:18;;;;;;;0.20;0.20;;;;;;;8.19;100.00;100341.38;10381618;28;20104;-71
2022/12/28 18:03:21;;;;;;;0.75;0.73;;;;;;;8.29;100.00;100355.59;10380804;28;20385;-71
2022/12/28 18:08:23;;;;;;;1.95;0.25;;;;;;;8.18;100.00;100331.88;10381273;28;20124;-71
2022/12/28 18:13:26;;;;;;;0.30;0.30;;;;;;;8.11;100.00;100330.53;10381026;28;20064;-71
2022/12/28 18:18:29;;;;;;;0.40;0.30;;;;;;;8.16;100.00;100315.47;10380050;28;20053;-70
2022/12/28 18:23:31;;;;;;;0.13;0.13;;;;;;;8.17;100.00;100317.16;10380586;28;20050;-71
2022/12/28 18:28:35;;;;;;;1.65;1.05;;;;;;;8.17;100.00;100312.78;10380751;28;20042;-70
2022/12/28 18:33:38;;;;;;;1.17;0.88;;;;;;;8.26;100.00;100297.56;10379085;28;20053;-71
2022/12/28 18:38:41;;;;;;;0.10;0.10;;;;;;;8.27;100.00;100296.59;10379520;28;20547;-71
2022/12/28 18:43:44;;;;;;;0.45;0.45;;;;;;;8.21;100.00;100283.94;10379215;28;20054;-70
2022/12/28 18:48:46;;;;;;;0.73;0.73;;;;;;;8.18;100.00;100264.91;10379774;28;20054;-70
2022/12/28 18:53:49;;;;;;;0.20;0.20;;;;;;;8.15;100.00;100277.28;10380121;28;20052;-70
2022/12/28 18:58:53;;;;;;;0.65;0.65;;;;;;;8.17;100.00;100276.28;10378212;28;20050;-70
2022/12/28 19:03:56;;;;;;;0.28;0.28;;;;;;;8.14;100.00;100273.00;10378527;28;20451;-70
2022/12/28 19:09:00;;;;;;;2.50;1.20;;;;;;;8.24;100.00;100281.13;10361629;28;20050;-70
2022/12/28 19:14:03;;;;;;;0.22;0.22;;;;;;;8.19;100.00;100270.97;10377992;28;20484;-70
2022/12/28 19:19:06;;;;;;;0.40;0.35;;;;;;;8.16;100.00;100264.16;10377946;28;20112;-70
2022/12/28 19:24:16;;;;;;;0.20;0.20;;;;;;;8.31;100.00;100272.88;10378323;28;20046;-70
2022/12/28 19:29:19;;;;;;;0.10;0.10;;;;;;;8.22;100.00;100241.25;10377655;28;20475;-71
2022/12/28 19:34:21;;;;;;;0.20;0.20;;;;;;;8.32;100.00;100247.63;10377079;28;20405;-71
2022/12/28 19:39:24;;;;;;;0.20;0.20;;;;;;;8.29;100.00;100240.00;10377790;28;20054;-71
2022/12/28 19:44:26;;;;;;;0.30;0.30;;;;;;;8.23;100.00;100238.56;10374723;28;20046;-71
2022/12/28 19:49:28;;;;;;;0.28;0.28;;;;;;;8.48;100.00;100245.03;10376674;28;20112;-71
2022/12/28 19:54:31;;;;;;;0.30;0.30;;;;;;;8.52;100.00;100234.34;10376442;28;20520;-72
2022/12/28 19:59:34;;;;;;;0.30;0.30;;;;;;;8.52;100.00;100221.31;10375131;28;20520;-72
2022/12/28 20:04:36;;;;;;;0.20;0.20;;;;;;;8.55;100.00;100225.47;10376761;28;20049;-72
2022/12/28 20:09:38;;;;;;;0.30;0.30;;;;;;;8.51;100.00;100222.22;10375984;28;20050;-72
2022/12/28 20:14:41;;;;;;;1.73;1.63;;;;;;;8.66;100.00;100228.31;10375660;28;20448;-72
2022/12/28 20:19:43;;;;;;;0.10;0.10;;;;;;;8.65;100.00;100213.56;10375546;28;20401;-72
2022/12/28 20:24:46;;;;;;;0.20;0.20;;;;;;;8.67;100.00;100213.50;10376126;28;20050;-72
2022/12/28 20:29:48;;;;;;;0.20;0.20;;;;;;;8.76;100.00;100210.34;10375865;28;20112;-73
2022/12/28 20:34:50;;;;;;;1.35;0.95;;;;;;;8.72;100.00;100212.31;10375382;28;20053;-72
2022/12/28 20:39:53;;;;;;;0.30;0.30;;;;;;;8.82;100.00;100212.56;10374418;28;20058;-72
2022/12/28 20:44:57;;;;;;;0.38;0.38;;;;;;;8.89;100.00;100205.22;10375541;28;20046;-72
2022/12/28 20:50:02;;;;;;;0.20;0.20;;;;;;;8.83;100.00;100211.66;10401749;23;20050;-73
2022/12/28 20:55:07;;;;;;;0.40;0.40;;;;;;;9.01;100.00;100220.19;10415008;28;20411;-73
2022/12/28 21:00:09;;;;;;;0.20;0.20;;;;;;;9.00;100.00;100213.25;10415181;28;20488;-72
2022/12/28 21:05:12;;;;;;;0.10;0.10;;;;;;;8.99;100.00;100203.75;10414501;28;20045;-73
2022/12/28 21:10:14;;;;;;;0.13;0.13;;;;;;;9.15;100.00;100171.50;10413856;28;20049;-75
2022/12/28 21:15:16;;;;;;;0.73;0.73;;;;;;;9.21;100.00;100194.59;10413531;28;20484;-72
2022/12/28 21:20:19;;;;;;;0.20;0.20;;;;;;;9.21;100.00;100178.94;10415322;28;20045;-73
2022/12/28 21:25:21;;;;;;;0.73;0.73;;;;;;;9.16;100.00;100170.53;10414553;28;20049;-73
2022/12/28 21:30:24;;;;;;;0.10;0.10;;;;;;;9.23;100.00;100172.69;10397600;28;20107;-74
2022/12/28 21:35:26;;;;;;;0.20;0.20;;;;;;;9.18;100.00;100164.31;10414714;28;20049;-74
2022/12/28 21:40:37;;;;;;;0.10;0.10;;;;;;;9.33;100.00;100143.38;10415051;28;20049;-73
2022/12/28 21:45:40;;;;;;;0.20;0.20;;;;;;;9.45;100.00;100146.06;10412955;28;20045;-74
2022/12/28 21:50:42;;;;;;;0.77;0.77;;;;;;;9.44;100.00;100133.91;10413840;28;20068;-74
2022/12/28 21:55:45;;;;;;;0.20;0.20;;;;;;;9.59;100.00;100121.66;10412614;28;20048;-74
2022/12/28 22:06:25;;;;;;;0.63;0.63;;;;;;;9.39;100.00;100109.03;10343879;28;20060;-74
2022/12/28 22:16:48;;;;;;;0.00;0.00;;;;;;;9.52;100.00;100107.31;10421237;28;20473;-74
2022/12/28 22:21:51;;;;;;;0.20;0.20;;;;;;;9.64;100.00;100111.75;10421720;28;20136;-74
2022/12/28 22:26:53;;;;;;;0.10;0.10;;;;;;;9.68;100.00;100091.47;10421447;28;20052;-74
2022/12/28 22:31:55;;;;;;;0.45;0.45;;;;;;;9.64;100.00;100090.00;10421374;28;20060;-74
2022/12/28 22:36:58;;;;;;;0.10;0.10;;;;;;;9.80;100.00;100093.31;10420425;28;20493;-74
2022/12/28 22:42:00;;;;;;;0.20;0.20;;;;;;;9.71;100.00;100083.44;10420932;28;20071;-74
2022/12/28 22:47:03;;;;;;;1.02;0.68;;;;;;;9.86;100.00;100073.75;10419672;28;20053;-74
2022/12/28 22:52:05;;;;;;;0.20;0.20;;;;;;;9.89;100.00;100084.03;10418581;28;20068;-74
2022/12/28 22:57:08;;;;;;;0.08;0.08;;;;;;;9.85;100.00;100078.16;10419693;28;20408;-73
2022/12/28 23:02:10;;;;;;;0.10;0.10;;;;;;;9.76;100.00;100070.06;10402770;28;20053;-74
2022/12/28 23:07:13;;;;;;;7.53;6.93;;;;;;;10.10;100.00;100073.06;10420123;28;20045;-74
2022/12/28 23:12:15;;;;;;;0.20;0.20;;;;;;;9.93;100.00;100074.19;10418469;28;20057;-74
2022/12/28 23:17:17;;;;;;;0.10;0.10;;;;;;;9.98;100.00;100067.72;10418175;28;20045;-74
2022/12/28 23:27:45;;;;;;;0.10;0.10;;;;;;;9.86;100.00;100069.34;10418759;28;20492;-74
2022/12/28 23:32:49;;;;;;;0.60;0.60;;;;;;;10.03;100.00;100056.94;10417803;28;20052;-75
2022/12/28 23:37:52;;;;;;;0.20;0.20;;;;;;;9.95;100.00;100039.16;10417051;28;20049;-75